createdAt,value
2023-03-16T00:00:01.001Z,47.05
2023-03-16T00:00:32.941Z,47.88
2023-03-16T00:01:08.312Z,47.70
2023-03-16T00:01:40.095Z,48.07
2023-03-16T00:02:13.037Z,48.20
2023-03-16T00:02:44.964Z,47.98
2023-03-16T00:03:19.512Z,47.85
2023-03-16T00:03:51.252Z,48.25
2023-03-16T00:04:22.960Z,48.12
2023-03-16T00:04:55.148Z,48.32
2023-03-16T00:05:26.860Z,48.50
2023-03-16T00:05:58.582Z,48.39
2023-03-16T00:06:30.385Z,48.16
2023-03-16T00:07:02.328Z,48.35
2023-03-16T00:07:34.563Z,48.21
2023-03-16T00:08:06.343Z,47.93
2023-03-16T00:08:39.259Z,47.87
2023-03-16T00:09:11.178Z,47.90
2023-03-16T00:09:43.040Z,47.76
2023-03-16T00:10:14.906Z,47.74
2023-03-16T00:10:47.489Z,48.17
2023-03-16T00:11:19.861Z,48.14
2023-03-16T00:11:51.571Z,47.57
2023-03-16T00:12:23.318Z,47.45
2023-03-16T00:12:56.819Z,47.08
2023-03-16T00:13:29.632Z,47.40
2023-03-16T00:14:04.297Z,47.20
2023-03-16T00:14:36.154Z,47.46
2023-03-16T00:15:08.144Z,46.95
2023-03-16T00:15:39.807Z,47.06
2023-03-16T00:16:17.189Z,46.72
2023-03-16T00:16:49.064Z,46.76
2023-03-16T00:17:21.446Z,46.53
2023-03-16T00:17:53.145Z,46.44
2023-03-16T00:18:27.848Z,46.47
2023-03-16T00:18:59.651Z,46.56
2023-03-16T00:19:35.311Z,45.87
2023-03-16T00:20:07.690Z,46.49
2023-03-16T00:20:39.394Z,46.33
2023-03-16T00:21:14.829Z,46.29
2023-03-16T00:22:05.175Z,46.36
2023-03-16T00:22:37.098Z,46.58
2023-03-16T00:23:08.786Z,46.26
2023-03-16T00:23:40.536Z,46.42
2023-03-16T00:24:12.982Z,46.46
2023-03-16T00:24:44.722Z,46.67
2023-03-16T00:25:17.396Z,46.96
2023-03-16T00:25:53.900Z,46.69
2023-03-16T00:26:25.941Z,46.91
2023-03-16T00:26:57.623Z,47.12
2023-03-16T00:27:29.399Z,47.55
2023-03-16T00:28:03.732Z,47.15
2023-03-16T00:28:36.625Z,47.17
2023-03-16T00:29:08.304Z,47.37
2023-03-16T00:29:47.513Z,47.22
2023-03-16T00:30:19.257Z,47.40
2023-03-16T00:30:52.272Z,47.39
2023-03-16T00:31:25.145Z,47.88
2023-03-16T00:31:56.928Z,48.08
2023-03-16T00:32:32.268Z,47.62
2023-03-16T00:33:05.068Z,47.67
2023-03-16T00:33:36.831Z,47.76
2023-03-16T00:34:08.542Z,47.79
2023-03-16T00:34:40.612Z,48.42
2023-03-16T00:35:12.280Z,48.18
2023-03-16T00:35:50.414Z,48.80
2023-03-16T00:36:22.900Z,48.38
2023-03-16T00:36:55.419Z,49.11
2023-03-16T00:37:28.806Z,48.91
2023-03-16T00:38:00.527Z,48.79
2023-03-16T00:38:35.958Z,49.02
2023-03-16T00:39:08.276Z,49.37
2023-03-16T00:39:40.823Z,49.48
2023-03-16T00:40:12.929Z,49.42
2023-03-16T00:40:45.421Z,49.67
2023-03-16T00:41:17.146Z,49.51
2023-03-16T00:41:48.790Z,49.71
2023-03-16T00:42:20.564Z,50.08
2023-03-16T00:42:52.261Z,50.17
2023-03-16T00:43:27.281Z,50.01
2023-03-16T00:43:58.994Z,50.32
2023-03-16T00:44:31.698Z,50.13
2023-03-16T00:45:05.933Z,50.15
2023-03-16T00:45:37.910Z,51.19
2023-03-16T00:46:13.132Z,50.42
2023-03-16T00:46:44.857Z,50.65
2023-03-16T00:47:16.557Z,50.71
2023-03-16T00:47:48.293Z,51.09
2023-03-16T00:48:21.357Z,51.17
2023-03-16T00:48:53.155Z,51.25
2023-03-16T00:49:24.874Z,51.44
2023-03-16T00:49:57.463Z,50.93
2023-03-16T00:50:29.685Z,50.77
2023-03-16T00:51:07.122Z,51.10
2023-03-16T00:51:38.807Z,50.53
2023-03-16T00:52:15.609Z,50.03
2023-03-16T00:52:47.275Z,50.01
2023-03-16T00:53:18.973Z,50.02
2023-03-16T00:53:50.716Z,49.90
2023-03-16T00:54:22.510Z,49.83
2023-03-16T00:54:56.032Z,50.28
2023-03-16T00:55:28.717Z,50.01
2023-03-16T00:56:04.453Z,50.30
2023-03-16T00:56:36.212Z,50.52
2023-03-16T00:57:07.939Z,50.72
2023-03-16T00:57:39.682Z,50.11
2023-03-16T00:58:14.965Z,50.27
2023-03-16T00:58:46.753Z,50.68
2023-03-16T00:59:20.256Z,50.86
2023-03-16T00:59:52.677Z,51.10
2023-03-16T01:00:28.611Z,50.53
2023-03-16T01:01:02.216Z,50.36
2023-03-16T01:01:34.102Z,50.68
2023-03-16T01:02:08.107Z,50.43
2023-03-16T01:02:39.787Z,50.71
2023-03-16T01:03:11.585Z,50.64
2023-03-16T01:03:43.978Z,50.37
2023-03-16T01:04:15.689Z,50.56
2023-03-16T01:04:47.412Z,50.67
2023-03-16T01:05:19.491Z,50.98
2023-03-16T01:05:51.186Z,51.08
2023-03-16T01:06:22.997Z,50.87
2023-03-16T01:06:55.462Z,51.41
2023-03-16T01:07:27.141Z,51.84
2023-03-16T01:07:59.983Z,51.67
2023-03-16T01:08:33.182Z,51.19
2023-03-16T01:09:05.790Z,51.36
2023-03-16T01:09:37.503Z,51.99
2023-03-16T01:10:10.143Z,51.62
2023-03-16T01:10:41.862Z,51.34
2023-03-16T01:11:19.394Z,51.55
2023-03-16T01:11:54.032Z,51.46
2023-03-16T01:12:25.728Z,51.33
2023-03-16T01:12:57.405Z,51.37
2023-03-16T01:13:30.189Z,51.96
2023-03-16T01:14:01.906Z,52.03
2023-03-16T01:14:35.022Z,51.94
2023-03-16T01:15:07.364Z,51.94
2023-03-16T01:15:39.608Z,51.61
2023-03-16T01:16:11.404Z,52.50
2023-03-16T01:16:45.957Z,52.12
2023-03-16T01:17:18.540Z,52.00
2023-03-16T01:17:50.215Z,51.99
2023-03-16T01:18:22.476Z,52.05
2023-03-16T01:18:54.436Z,52.28
2023-03-16T01:19:26.095Z,51.98
2023-03-16T01:19:57.957Z,51.91
2023-03-16T01:20:29.923Z,51.98
2023-03-16T01:21:09.029Z,51.61
2023-03-16T01:21:42.633Z,51.79
2023-03-16T01:22:15.437Z,51.95
2023-03-16T01:22:47.191Z,52.58
2023-03-16T01:23:19.992Z,52.72
2023-03-16T01:23:53.884Z,52.30
2023-03-16T01:24:25.553Z,52.69
2023-03-16T01:24:57.300Z,52.34
2023-03-16T01:25:29.016Z,52.01
2023-03-16T01:26:02.199Z,52.45
2023-03-16T01:26:33.973Z,52.90
2023-03-16T01:27:05.832Z,53.39
2023-03-16T01:27:38.004Z,52.93
2023-03-16T01:28:09.979Z,52.84
2023-03-16T01:28:41.691Z,53.11
2023-03-16T01:29:13.350Z,52.60
2023-03-16T01:29:45.561Z,52.78
2023-03-16T01:30:17.342Z,52.56
2023-03-16T01:30:49.282Z,52.81
2023-03-16T01:31:21.157Z,52.79
2023-03-16T01:31:52.945Z,52.73
2023-03-16T01:32:24.637Z,53.07
2023-03-16T01:32:56.333Z,52.47
2023-03-16T01:33:28.991Z,52.38
2023-03-16T01:34:04.096Z,52.35
2023-03-16T01:34:35.978Z,52.29
2023-03-16T01:35:08.215Z,52.99
2023-03-16T01:35:40.148Z,52.46
2023-03-16T01:36:14.283Z,52.72
2023-03-16T01:36:50.530Z,52.90
2023-03-16T01:37:22.767Z,53.68
2023-03-16T01:37:54.445Z,52.54
2023-03-16T01:38:26.917Z,52.62
2023-03-16T01:39:00.124Z,52.78
2023-03-16T01:39:31.887Z,52.53
2023-03-16T01:40:06.535Z,52.88
2023-03-16T01:40:38.268Z,52.46
2023-03-16T01:41:10.363Z,52.73
2023-03-16T01:41:43.528Z,52.76
2023-03-16T01:42:15.371Z,52.82
2023-03-16T01:42:49.498Z,52.93
2023-03-16T01:43:24.184Z,52.86
2023-03-16T01:43:58.564Z,51.89
2023-03-16T01:44:49.652Z,51.50
2023-03-16T01:46:06.550Z,51.82
2023-03-16T01:46:38.572Z,51.42
2023-03-16T01:47:11.180Z,51.92
2023-03-16T01:47:42.840Z,51.95
2023-03-16T01:48:14.839Z,51.53
2023-03-16T01:48:56.657Z,51.46
2023-03-16T01:49:34.024Z,51.83
2023-03-16T01:50:07.651Z,51.68
2023-03-16T01:50:39.496Z,51.96
2023-03-16T01:51:35.947Z,52.12
2023-03-16T01:52:21.450Z,52.28
2023-03-16T01:52:53.242Z,52.31
2023-03-16T01:53:26.819Z,52.25
2023-03-16T01:54:07.672Z,52.07
2023-03-16T01:54:51.167Z,52.44
2023-03-16T01:55:23.195Z,52.68
2023-03-16T01:55:55.385Z,52.37
2023-03-16T01:56:34.714Z,52.52
2023-03-16T01:57:15.050Z,53.06
2023-03-16T01:57:47.239Z,53.44
2023-03-16T01:58:19.065Z,52.97
2023-03-16T01:58:58.730Z,53.29
2023-03-16T01:59:47.787Z,53.43
2023-03-16T02:00:23.771Z,53.65
2023-03-16T02:00:55.673Z,53.35
2023-03-16T02:01:28.453Z,53.11
2023-03-16T02:02:02.584Z,53.30
2023-03-16T02:02:35.023Z,52.94
2023-03-16T02:03:15.152Z,52.96
2023-03-16T02:03:46.888Z,53.19
2023-03-16T02:04:42.442Z,53.31
2023-03-16T02:05:23.318Z,53.31
2023-03-16T02:06:13.026Z,53.45
2023-03-16T02:06:47.419Z,53.78
2023-03-16T02:07:22.584Z,54.01
2023-03-16T02:07:58.783Z,53.66
2023-03-16T02:08:32.323Z,53.41
2023-03-16T02:09:06.240Z,53.97
2023-03-16T02:09:46.376Z,54.23
2023-03-16T02:10:20.701Z,54.20
2023-03-16T02:10:56.271Z,54.56
2023-03-16T02:11:28.772Z,54.31
2023-03-16T02:12:01.584Z,54.03
2023-03-16T02:12:33.941Z,53.93
2023-03-16T02:13:06.497Z,54.07
2023-03-16T02:13:39.430Z,54.30
2023-03-16T02:14:12.716Z,54.34
2023-03-16T02:14:45.760Z,54.66
2023-03-16T02:15:17.550Z,54.29
2023-03-16T02:15:49.565Z,54.54
2023-03-16T02:16:22.649Z,53.97
2023-03-16T02:16:56.029Z,53.92
2023-03-16T02:17:31.068Z,54.21
2023-03-16T02:18:04.431Z,53.89
2023-03-16T02:18:36.546Z,53.63
2023-03-16T02:19:14.686Z,53.56
2023-03-16T02:19:56.781Z,53.27
2023-03-16T02:20:34.541Z,53.35
2023-03-16T02:21:09.013Z,53.65
2023-03-16T02:22:04.006Z,53.62
2023-03-16T02:22:44.161Z,53.23
2023-03-16T02:23:19.146Z,53.68
2023-03-16T02:23:51.547Z,53.57
2023-03-16T02:24:23.332Z,53.33
2023-03-16T02:24:55.301Z,53.05
2023-03-16T02:25:40.046Z,53.33
2023-03-16T02:26:34.469Z,53.49
2023-03-16T02:27:12.318Z,52.98
2023-03-16T02:28:08.712Z,53.28
2023-03-16T02:28:55.313Z,53.27
2023-03-16T02:30:02.265Z,53.37
2023-03-16T02:30:34.796Z,53.28
2023-03-16T02:31:07.451Z,53.14
2023-03-16T02:31:40.176Z,52.83
2023-03-16T02:32:14.780Z,52.85
2023-03-16T02:32:51.558Z,53.25
2023-03-16T02:33:24.264Z,53.09
2023-03-16T02:33:57.404Z,53.86
2023-03-16T02:34:29.519Z,53.22
2023-03-16T02:35:02.661Z,53.58
2023-03-16T02:35:34.642Z,53.69
2023-03-16T02:36:06.849Z,53.54
2023-03-16T02:36:41.790Z,53.53
2023-03-16T02:37:13.764Z,53.39
2023-03-16T02:37:45.546Z,53.77
2023-03-16T02:38:17.234Z,53.72
2023-03-16T02:38:49.063Z,53.92
2023-03-16T02:39:20.712Z,53.28
2023-03-16T02:39:52.417Z,53.81
2023-03-16T02:40:28.536Z,53.54
2023-03-16T02:41:10.301Z,53.58
2023-03-16T02:41:42.413Z,53.35
2023-03-16T02:42:19.392Z,53.54
2023-03-16T02:43:02.933Z,53.53
2023-03-16T02:43:38.049Z,53.82
2023-03-16T02:44:41.902Z,53.71
2023-03-16T02:45:13.649Z,53.77
2023-03-16T02:45:53.913Z,54.00
2023-03-16T02:46:28.408Z,53.66
2023-03-16T02:47:05.982Z,54.23
2023-03-16T02:47:42.597Z,54.02
2023-03-16T02:48:23.797Z,54.20
2023-03-16T02:49:05.839Z,54.01
2023-03-16T02:49:44.514Z,53.97
2023-03-16T02:50:16.230Z,53.84
2023-03-16T02:50:53.162Z,53.57
2023-03-16T02:51:24.954Z,53.92
2023-03-16T02:51:57.630Z,53.83
2023-03-16T02:52:29.379Z,54.35
2023-03-16T02:53:01.070Z,54.13
2023-03-16T02:53:32.944Z,54.02
2023-03-16T02:54:04.848Z,53.97
2023-03-16T02:54:36.845Z,53.74
2023-03-16T02:55:09.335Z,53.83
2023-03-16T02:55:41.495Z,53.94
2023-03-16T02:56:13.199Z,54.05
2023-03-16T02:56:46.117Z,54.22
2023-03-16T02:57:17.891Z,54.05
2023-03-16T02:57:49.679Z,54.62
2023-03-16T02:58:21.414Z,54.24
2023-03-16T02:58:53.414Z,54.49
2023-03-16T02:59:25.113Z,54.32
2023-03-16T02:59:56.793Z,54.32
2023-03-16T03:00:29.953Z,53.88
2023-03-16T03:01:01.908Z,53.95
2023-03-16T03:01:35.092Z,54.12
2023-03-16T03:02:07.652Z,53.95
2023-03-16T03:02:40.176Z,53.72
2023-03-16T03:03:12.111Z,54.06
2023-03-16T03:03:43.886Z,54.04
2023-03-16T03:04:15.637Z,54.26
2023-03-16T03:04:48.583Z,54.18
2023-03-16T03:05:21.340Z,54.04
2023-03-16T03:05:53.034Z,53.94
2023-03-16T03:06:25.362Z,54.16
2023-03-16T03:07:04.039Z,54.47
2023-03-16T03:07:35.859Z,54.67
2023-03-16T03:08:08.131Z,54.44
2023-03-16T03:08:39.915Z,54.56
2023-03-16T03:09:11.897Z,55.09
2023-03-16T03:09:43.675Z,54.18
2023-03-16T03:10:15.619Z,54.13
2023-03-16T03:10:47.357Z,54.66
2023-03-16T03:11:21.887Z,54.31
2023-03-16T03:11:53.547Z,54.41
2023-03-16T03:12:25.351Z,54.29
2023-03-16T03:12:57.668Z,54.39
2023-03-16T03:13:29.339Z,54.68
2023-03-16T03:14:01.474Z,54.91
2023-03-16T03:14:33.603Z,54.95
2023-03-16T03:15:05.904Z,55.12
2023-03-16T03:15:37.760Z,55.08
2023-03-16T03:16:09.552Z,55.10
2023-03-16T03:16:41.290Z,55.34
2023-03-16T03:17:14.592Z,55.49
2023-03-16T03:17:47.406Z,55.47
2023-03-16T03:18:31.122Z,55.17
2023-03-16T03:19:21.107Z,55.75
2023-03-16T03:19:52.797Z,55.75
2023-03-16T03:20:24.785Z,55.11
2023-03-16T03:20:56.538Z,55.64
2023-03-16T03:21:28.645Z,55.89
2023-03-16T03:22:06.459Z,56.10
2023-03-16T03:22:38.219Z,55.50
2023-03-16T03:23:09.920Z,55.69
2023-03-16T03:23:41.643Z,55.71
2023-03-16T03:24:13.439Z,55.59
2023-03-16T03:24:45.340Z,55.88
2023-03-16T03:25:18.611Z,55.64
2023-03-16T03:25:50.397Z,55.44
2023-03-16T03:26:22.122Z,55.34
2023-03-16T03:26:53.932Z,55.38
2023-03-16T03:27:25.705Z,55.82
2023-03-16T03:27:57.467Z,55.94
2023-03-16T03:28:29.320Z,55.93
2023-03-16T03:29:01.044Z,56.16
2023-03-16T03:29:36.238Z,56.17
2023-03-16T03:30:13.263Z,56.08
2023-03-16T03:30:45.246Z,56.26
2023-03-16T03:31:19.733Z,55.96
2023-03-16T03:31:51.520Z,55.88
2023-03-16T03:32:23.348Z,56.38
2023-03-16T03:32:55.406Z,56.48
2023-03-16T03:33:28.242Z,56.62
2023-03-16T03:33:59.954Z,56.56
2023-03-16T03:34:32.276Z,56.66
2023-03-16T03:35:04.416Z,57.28
2023-03-16T03:35:36.160Z,56.82
2023-03-16T03:36:08.342Z,56.82
2023-03-16T03:36:41.594Z,56.93
2023-03-16T03:37:13.280Z,57.33
2023-03-16T03:37:45.030Z,56.97
2023-03-16T03:38:16.688Z,56.73
2023-03-16T03:38:49.682Z,57.26
2023-03-16T03:39:21.369Z,57.10
2023-03-16T03:39:53.544Z,57.24
2023-03-16T03:40:25.339Z,57.23
2023-03-16T03:41:00.492Z,58.03
2023-03-16T03:41:33.505Z,57.96
2023-03-16T03:42:05.351Z,57.67
2023-03-16T03:42:37.149Z,57.80
2023-03-16T03:43:08.971Z,57.63
2023-03-16T03:43:41.191Z,57.75
2023-03-16T03:44:12.882Z,57.71
2023-03-16T03:44:44.655Z,57.52
2023-03-16T03:45:16.842Z,58.29
2023-03-16T03:45:48.685Z,57.72
2023-03-16T03:46:20.833Z,57.91
2023-03-16T03:46:52.686Z,57.95
2023-03-16T03:47:24.456Z,58.25
2023-03-16T03:47:56.620Z,58.28
2023-03-16T03:48:29.086Z,58.23
2023-03-16T03:49:03.930Z,58.50
2023-03-16T03:49:35.597Z,58.74
2023-03-16T03:50:09.068Z,58.84
2023-03-16T03:50:40.924Z,58.72
2023-03-16T03:51:12.648Z,58.84
2023-03-16T03:51:44.661Z,59.03
2023-03-16T03:52:16.333Z,59.32
2023-03-16T03:52:48.414Z,59.24
2023-03-16T03:53:20.428Z,59.45
2023-03-16T03:53:52.115Z,59.40
2023-03-16T03:54:23.801Z,59.47
2023-03-16T03:54:55.714Z,59.56
2023-03-16T03:55:27.400Z,59.59
2023-03-16T03:55:59.124Z,59.93
2023-03-16T03:56:31.171Z,59.95
2023-03-16T03:57:03.289Z,59.98
2023-03-16T03:57:35.538Z,60.03
2023-03-16T03:58:07.467Z,60.32
2023-03-16T03:58:39.213Z,60.10
2023-03-16T03:59:10.968Z,59.75
2023-03-16T03:59:43.905Z,60.55
2023-03-16T04:00:16.019Z,60.61
2023-03-16T04:00:47.693Z,60.91
2023-03-16T04:01:19.378Z,60.86
2023-03-16T04:01:53.849Z,61.32
2023-03-16T04:02:25.602Z,60.94
2023-03-16T04:02:57.382Z,61.19
2023-03-16T04:03:29.274Z,61.39
2023-03-16T04:04:01.023Z,61.20
2023-03-16T04:04:32.714Z,61.45
2023-03-16T04:05:06.087Z,61.21
2023-03-16T04:05:37.786Z,61.10
2023-03-16T04:06:09.655Z,61.57
2023-03-16T04:06:41.823Z,61.66
2023-03-16T04:07:13.484Z,62.02
2023-03-16T04:07:45.146Z,62.08
2023-03-16T04:08:16.826Z,62.54
2023-03-16T04:08:48.748Z,62.11
2023-03-16T04:09:20.404Z,62.14
2023-03-16T04:09:52.121Z,61.98
2023-03-16T04:10:30.171Z,61.72
2023-03-16T04:11:02.107Z,62.22
2023-03-16T04:11:34.230Z,61.96
2023-03-16T04:12:06.843Z,61.81
2023-03-16T04:12:38.715Z,61.99
2023-03-16T04:13:10.749Z,62.31
2023-03-16T04:13:42.412Z,62.33
2023-03-16T04:14:14.100Z,62.14
2023-03-16T04:14:45.820Z,62.40
2023-03-16T04:15:17.601Z,62.29
2023-03-16T04:15:49.523Z,62.32
2023-03-16T04:16:21.372Z,62.36
2023-03-16T04:16:54.799Z,61.89
2023-03-16T04:17:26.853Z,62.26
2023-03-16T04:17:59.429Z,62.26
2023-03-16T04:18:38.836Z,62.48
2023-03-16T04:19:11.567Z,62.89
2023-03-16T04:19:43.603Z,62.99
2023-03-16T04:20:19.416Z,62.75
2023-03-16T04:20:53.316Z,63.23
2023-03-16T04:21:25.003Z,63.22
2023-03-16T04:21:56.689Z,63.02
2023-03-16T04:22:30.364Z,63.21
2023-03-16T04:23:02.165Z,63.05
2023-03-16T04:23:34.894Z,63.50
2023-03-16T04:24:06.732Z,63.37
2023-03-16T04:24:38.458Z,63.53
2023-03-16T04:25:11.604Z,63.59
2023-03-16T04:25:45.387Z,63.81
2023-03-16T04:26:17.982Z,63.71
2023-03-16T04:26:49.773Z,64.04
2023-03-16T04:27:21.452Z,63.43
2023-03-16T04:27:53.375Z,64.00
2023-03-16T04:28:26.883Z,64.36
2023-03-16T04:28:58.970Z,64.07
2023-03-16T04:29:30.719Z,64.69
2023-03-16T04:30:06.767Z,64.31
2023-03-16T04:30:38.577Z,63.83
2023-03-16T04:31:11.195Z,63.88
2023-03-16T04:31:43.780Z,64.32
2023-03-16T04:32:15.470Z,64.40
2023-03-16T04:32:47.280Z,64.66
2023-03-16T04:33:18.967Z,64.19
2023-03-16T04:33:54.692Z,64.36
2023-03-16T04:34:26.646Z,64.59
2023-03-16T04:34:58.352Z,64.76
2023-03-16T04:35:30.538Z,64.97
2023-03-16T04:36:03.519Z,64.56
2023-03-16T04:36:35.530Z,65.01
2023-03-16T04:37:07.275Z,65.15
2023-03-16T04:37:38.956Z,64.64
2023-03-16T04:38:12.212Z,65.05
2023-03-16T04:38:43.898Z,65.06
2023-03-16T04:39:15.604Z,64.71
2023-03-16T04:39:47.290Z,64.76
2023-03-16T04:40:19.532Z,64.99
2023-03-16T04:40:51.396Z,64.85
2023-03-16T04:41:23.418Z,64.97
2023-03-16T04:41:55.522Z,65.42
2023-03-16T04:42:27.208Z,65.14
2023-03-16T04:42:58.901Z,64.96
2023-03-16T04:43:34.538Z,65.03
2023-03-16T04:44:06.252Z,65.36
2023-03-16T04:44:44.411Z,65.15
2023-03-16T04:45:20.161Z,65.13
2023-03-16T04:45:51.972Z,64.85
2023-03-16T04:46:24.915Z,64.90
2023-03-16T04:46:56.654Z,64.94
2023-03-16T04:47:28.342Z,65.41
2023-03-16T04:48:00.200Z,65.43
2023-03-16T04:48:32.529Z,65.05
2023-03-16T04:49:04.178Z,65.21
2023-03-16T04:49:35.992Z,64.94
2023-03-16T04:50:08.849Z,65.42
2023-03-16T04:50:41.016Z,65.46
2023-03-16T04:51:12.774Z,64.86
2023-03-16T04:51:45.838Z,65.11
2023-03-16T04:52:17.524Z,64.99
2023-03-16T04:52:49.173Z,65.20
2023-03-16T04:53:20.949Z,64.69
2023-03-16T04:53:52.972Z,65.22
2023-03-16T04:54:24.665Z,64.98
2023-03-16T04:54:56.653Z,65.05
2023-03-16T04:55:28.597Z,65.12
2023-03-16T04:56:00.858Z,65.31
2023-03-16T04:56:32.576Z,65.34
2023-03-16T04:57:05.894Z,65.17
2023-03-16T04:57:37.646Z,65.61
2023-03-16T04:58:09.448Z,65.57
2023-03-16T04:58:41.658Z,65.02
2023-03-16T04:59:13.363Z,65.48
2023-03-16T04:59:45.445Z,65.07
2023-03-16T05:00:20.701Z,64.71
2023-03-16T05:00:53.724Z,65.27
2023-03-16T05:01:25.515Z,65.39
2023-03-16T05:01:57.338Z,64.86
2023-03-16T05:02:29.084Z,67.85
2023-03-16T05:03:00.751Z,70.31
2023-03-16T05:03:32.587Z,73.29
2023-03-16T05:04:04.301Z,72.50
2023-03-16T05:04:36.046Z,74.45
2023-03-16T05:05:08.182Z,69.25
2023-03-16T05:05:40.599Z,66.39
2023-03-16T05:06:12.818Z,66.76
2023-03-16T05:06:44.620Z,70.79
2023-03-16T05:07:16.483Z,66.95
2023-03-16T05:07:48.598Z,65.46
2023-03-16T05:08:20.338Z,65.32
2023-03-16T05:08:52.029Z,65.18
2023-03-16T05:09:23.672Z,65.77
2023-03-16T05:09:55.384Z,65.94
2023-03-16T05:10:27.439Z,64.80
2023-03-16T05:10:59.852Z,64.66
2023-03-16T05:11:32.009Z,64.87
2023-03-16T05:12:03.850Z,64.93
2023-03-16T05:12:35.523Z,65.08
2023-03-16T05:13:07.230Z,64.68
2023-03-16T05:13:38.973Z,64.59
2023-03-16T05:14:10.859Z,64.71
2023-03-16T05:14:42.750Z,65.20
2023-03-16T05:15:15.097Z,65.11
2023-03-16T05:15:46.817Z,64.95
2023-03-16T05:16:18.687Z,65.07
2023-03-16T05:16:52.304Z,65.40
2023-03-16T05:17:23.994Z,65.02
2023-03-16T05:17:56.177Z,65.02
2023-03-16T05:18:27.855Z,65.08
2023-03-16T05:19:00.727Z,65.11
2023-03-16T05:19:32.399Z,65.05
2023-03-16T05:20:08.980Z,65.05
2023-03-16T05:20:41.347Z,65.08
2023-03-16T05:21:13.025Z,65.12
2023-03-16T05:21:45.784Z,64.93
2023-03-16T05:22:17.501Z,65.49
2023-03-16T05:22:49.689Z,65.58
2023-03-16T05:23:22.804Z,65.94
2023-03-16T05:23:54.513Z,65.59
2023-03-16T05:24:26.389Z,65.79
2023-03-16T05:24:58.101Z,66.55
2023-03-16T05:25:29.904Z,72.76
2023-03-16T05:26:02.049Z,71.94
2023-03-16T05:26:33.997Z,72.47
2023-03-16T05:27:05.754Z,73.67
2023-03-16T05:27:37.471Z,70.66
2023-03-16T05:28:09.262Z,72.11
2023-03-16T05:28:42.639Z,67.44
2023-03-16T05:29:14.358Z,71.27
2023-03-16T05:29:46.225Z,66.85
2023-03-16T05:30:19.475Z,65.92
2023-03-16T05:30:51.820Z,65.52
2023-03-16T05:31:26.159Z,65.22
2023-03-16T05:31:59.663Z,65.43
2023-03-16T05:32:31.356Z,65.26
2023-03-16T05:33:03.197Z,65.01
2023-03-16T05:33:35.489Z,65.29
2023-03-16T05:34:07.302Z,65.03
2023-03-16T05:34:39.017Z,64.86
2023-03-16T05:35:13.659Z,64.73
2023-03-16T05:35:45.420Z,65.47
2023-03-16T05:36:17.672Z,65.52
2023-03-16T05:36:49.734Z,65.18
2023-03-16T05:37:21.521Z,65.30
2023-03-16T05:37:53.328Z,65.24
2023-03-16T05:38:27.465Z,65.26
2023-03-16T05:38:59.463Z,65.30
2023-03-16T05:39:31.273Z,65.02
2023-03-16T05:40:12.000Z,65.35
2023-03-16T05:40:44.034Z,64.85
2023-03-16T05:41:18.289Z,64.96
2023-03-16T05:41:50.254Z,65.35
2023-03-16T05:42:21.930Z,65.34
2023-03-16T05:42:57.801Z,65.33
2023-03-16T05:43:29.489Z,65.42
2023-03-16T05:44:01.234Z,65.05
2023-03-16T05:44:33.616Z,64.94
2023-03-16T05:45:06.440Z,65.33
2023-03-16T05:45:38.118Z,65.05
2023-03-16T05:46:09.819Z,64.95
2023-03-16T05:46:41.510Z,65.04
2023-03-16T05:47:13.757Z,65.06
2023-03-16T05:47:45.477Z,65.08
2023-03-16T05:48:17.210Z,65.04
2023-03-16T05:48:48.927Z,64.82
2023-03-16T05:49:20.581Z,65.15
2023-03-16T05:49:52.311Z,64.76
2023-03-16T05:50:24.230Z,65.39
2023-03-16T05:50:55.986Z,65.29
2023-03-16T05:51:27.751Z,66.09
2023-03-16T05:51:59.483Z,65.66
2023-03-16T05:52:31.500Z,65.72
2023-03-16T05:53:04.406Z,65.46
2023-03-16T05:53:36.106Z,65.66
2023-03-16T05:54:08.265Z,65.64
2023-03-16T05:54:39.962Z,65.73
2023-03-16T05:55:14.633Z,65.78
2023-03-16T05:55:52.625Z,66.05
2023-03-16T05:56:26.309Z,65.79
2023-03-16T05:56:57.998Z,65.76
2023-03-16T05:57:29.691Z,65.82
2023-03-16T05:58:02.557Z,65.92
2023-03-16T05:58:35.472Z,66.10
2023-03-16T05:59:07.209Z,65.71
2023-03-16T05:59:38.950Z,65.18
2023-03-16T06:00:14.652Z,65.16
2023-03-16T06:00:46.391Z,65.12
2023-03-16T06:01:18.083Z,64.77
2023-03-16T06:01:50.324Z,65.01
2023-03-16T06:02:22.120Z,65.08
2023-03-16T06:02:54.025Z,64.97
2023-03-16T06:03:26.088Z,64.99
2023-03-16T06:03:57.862Z,64.31
2023-03-16T06:04:29.722Z,63.82
2023-03-16T06:05:02.009Z,64.12
2023-03-16T06:05:33.963Z,64.39
2023-03-16T06:06:07.539Z,64.15
2023-03-16T06:06:39.312Z,64.44
2023-03-16T06:07:11.259Z,63.76
2023-03-16T06:07:43.008Z,63.66
2023-03-16T06:08:15.456Z,63.43
2023-03-16T06:08:47.544Z,63.06
2023-03-16T06:09:27.222Z,63.07
2023-03-16T06:09:58.884Z,62.81
2023-03-16T06:10:30.834Z,62.54
2023-03-16T06:11:04.173Z,61.96
2023-03-16T06:11:35.966Z,61.54
2023-03-16T06:12:07.879Z,60.48
2023-03-16T06:12:44.020Z,59.44
2023-03-16T06:13:15.786Z,58.12
2023-03-16T06:13:49.251Z,56.53
2023-03-16T06:14:21.512Z,55.52
2023-03-16T06:14:53.194Z,55.23
2023-03-16T06:15:26.580Z,54.69
2023-03-16T06:15:58.269Z,53.47
2023-03-16T06:16:30.295Z,51.98
2023-03-16T06:17:02.049Z,51.05
2023-03-16T06:17:34.912Z,49.89
2023-03-16T06:18:06.958Z,48.88
2023-03-16T06:18:39.772Z,49.09
2023-03-16T06:19:11.545Z,48.32
2023-03-16T06:19:43.325Z,47.74
2023-03-16T06:20:15.228Z,46.74
2023-03-16T06:20:47.539Z,45.53
2023-03-16T06:21:19.359Z,45.25
2023-03-16T06:21:53.886Z,45.53
2023-03-16T06:22:26.112Z,45.67
2023-03-16T06:22:58.389Z,46.20
2023-03-16T06:23:30.152Z,45.29
2023-03-16T06:24:02.554Z,45.06
2023-03-16T06:24:34.694Z,44.64
2023-03-16T06:25:07.433Z,44.76
2023-03-16T06:25:41.593Z,44.46
2023-03-16T06:26:16.229Z,45.33
2023-03-16T06:26:48.030Z,45.69
2023-03-16T06:27:20.495Z,46.71
2023-03-16T06:27:52.354Z,47.25
2023-03-16T06:28:24.036Z,48.25
2023-03-16T06:28:55.749Z,48.63
2023-03-16T06:29:27.624Z,48.05
2023-03-16T06:29:59.376Z,47.24
2023-03-16T06:30:31.758Z,46.46
2023-03-16T06:31:03.530Z,45.89
2023-03-16T06:31:35.482Z,45.82
2023-03-16T06:32:07.449Z,46.02
2023-03-16T06:32:42.037Z,46.82
2023-03-16T06:33:13.992Z,46.83
2023-03-16T06:33:45.740Z,47.11
2023-03-16T06:34:17.453Z,47.76
2023-03-16T06:34:51.664Z,48.15
2023-03-16T06:35:24.605Z,48.22
2023-03-16T06:35:56.324Z,48.22
2023-03-16T06:36:28.061Z,47.56
2023-03-16T06:36:59.752Z,47.36
2023-03-16T06:37:32.870Z,46.35
2023-03-16T06:38:06.901Z,44.92
2023-03-16T06:38:38.598Z,44.52
2023-03-16T06:39:12.966Z,44.17
2023-03-16T06:39:44.788Z,43.73
2023-03-16T06:40:20.978Z,42.97
2023-03-16T06:40:54.408Z,42.18
2023-03-16T06:41:26.201Z,41.55
2023-03-16T06:41:58.377Z,40.41
2023-03-16T06:42:30.125Z,40.32
2023-03-16T06:43:02.820Z,39.69
2023-03-16T06:43:34.796Z,39.40
2023-03-16T06:44:06.509Z,38.93
2023-03-16T06:44:38.837Z,39.09
2023-03-16T06:45:11.371Z,39.17
2023-03-16T06:45:43.522Z,40.38
2023-03-16T06:46:15.344Z,40.51
2023-03-16T06:46:47.224Z,41.57
2023-03-16T06:47:20.464Z,41.76
2023-03-16T06:47:52.629Z,40.69
2023-03-16T06:48:24.375Z,39.70
2023-03-16T06:48:57.649Z,38.95
2023-03-16T06:49:30.142Z,38.17
2023-03-16T06:50:01.941Z,38.38
2023-03-16T06:50:33.621Z,37.60
2023-03-16T06:51:07.948Z,37.53
2023-03-16T06:51:39.967Z,37.07
2023-03-16T06:52:14.432Z,36.27
2023-03-16T06:52:47.466Z,36.33
2023-03-16T06:53:19.263Z,35.72
2023-03-16T06:53:50.992Z,35.08
2023-03-16T06:54:22.997Z,33.89
2023-03-16T06:54:54.740Z,34.13
2023-03-16T06:55:26.555Z,34.63
2023-03-16T06:55:58.275Z,34.08
2023-03-16T06:56:34.151Z,33.93
2023-03-16T06:57:06.123Z,33.17
2023-03-16T06:57:37.952Z,33.60
2023-03-16T06:58:09.828Z,32.39
2023-03-16T06:58:41.959Z,32.41
2023-03-16T06:59:13.649Z,31.72
2023-03-16T06:59:45.494Z,31.05
2023-03-16T07:00:17.448Z,32.32
2023-03-16T07:00:49.259Z,31.62
2023-03-16T07:01:21.778Z,31.89
2023-03-16T07:01:53.543Z,31.87
2023-03-16T07:02:25.462Z,30.95
2023-03-16T07:03:00.465Z,30.92
2023-03-16T07:03:32.380Z,29.32
2023-03-16T07:04:04.213Z,29.49
2023-03-16T07:04:35.978Z,28.38
2023-03-16T07:05:08.615Z,28.95
2023-03-16T07:05:40.364Z,28.06
2023-03-16T07:06:13.273Z,27.70
2023-03-16T07:06:44.964Z,27.39
2023-03-16T07:07:17.335Z,27.89
2023-03-16T07:07:49.133Z,26.84